sensor_id;sensor_type;location;lat;lon;timestamp;temperature;humidity
23160;DHT22;11748;50.844;4.396;2022-11-21T00:00:46;8.50;99.90
23160;DHT22;11748;50.844;4.396;2022-11-21T00:03:13;8.30;99.90
23160;DHT22;11748;50.844;4.396;2022-11-21T00:05:41;8.10;99.90
23160;DHT22;11748;50.844;4.396;2022-11-21T00:08:12;8.10;99.90
23160;DHT22;11748;50.844;4.396;2022-11-21T00:10:39;8.00;99.90
23160;DHT22;11748;50.844;4.396;2022-11-21T00:13:06;8.00;99.90
23160;DHT22;11748;50.844;4.396;2022-11-21T00:15:33;8.00;99.90
23160;DHT22;11748;50.844;4.396;2022-11-21T00:18:02;7.90;99.90
23160;DHT22;11748;50.844;4.396;2022-11-21T00:20:28;8.00;99.90
23160;DHT22;11748;50.844;4.396;2022-11-21T00:22:54;7.90;99.90
23160;DHT22;11748;50.844;4.396;2022-11-21T00:25:20;8.00;99.90
23160;DHT22;11748;50.844;4.396;2022-11-21T00:27:45;7.80;99.90
23160;DHT22;11748;50.844;4.396;2022-11-21T00:30:11;7.70;99.90
23160;DHT22;11748;50.844;4.396;2022-11-21T00:32:37;7.70;99.90
23160;DHT22;11748;50.844;4.396;2022-11-21T00:35:04;7.70;99.90
23160;DHT22;11748;50.844;4.396;2022-11-21T00:37:33;7.70;99.90
23160;DHT22;11748;50.844;4.396;2022-11-21T00:39:59;7.70;99.90
23160;DHT22;11748;50.844;4.396;2022-11-21T00:42:25;7.70;99.90
23160;DHT22;11748;50.844;4.396;2022-11-21T00:44:51;7.70;99.90
23160;DHT22;11748;50.844;4.396;2022-11-21T00:47:17;7.70;99.90
23160;DHT22;11748;50.844;4.396;2022-11-21T00:49:43;7.70;99.90
23160;DHT22;11748;50.844;4.396;2022-11-21T00:52:08;7.70;99.90
23160;DHT22;11748;50.844;4.396;2022-11-21T00:54:35;7.70;99.90
23160;DHT22;11748;50.844;4.396;2022-11-21T00:57:00;7.70;99.90
23160;DHT22;11748;50.844;4.396;2022-11-21T00:59:26;7.80;99.90
23160;DHT22;11748;50.844;4.396;2022-11-21T01:01:52;7.80;99.90
23160;DHT22;11748;50.844;4.396;2022-11-21T01:04:18;7.80;99.90
23160;DHT22;11748;50.844;4.396;2022-11-21T01:06:43;7.80;99.90
23160;DHT22;11748;50.844;4.396;2022-11-21T01:09:09;7.90;99.90
23160;DHT22;11748;50.844;4.396;2022-11-21T01:11:35;7.90;99.90
23160;DHT22;11748;50.844;4.396;2022-11-21T01:14:01;8.00;99.90
23160;DHT22;11748;50.844;4.396;2022-11-21T01:16:27;8.10;99.90
23160;DHT22;11748;50.844;4.396;2022-11-21T01:18:55;8.20;99.90
23160;DHT22;11748;50.844;4.396;2022-11-21T01:21:26;8.00;99.90
23160;DHT22;11748;50.844;4.396;2022-11-21T01:23:53;7.90;99.90
23160;DHT22;11748;50.844;4.396;2022-11-21T01:26:21;7.90;99.90
23160;DHT22;11748;50.844;4.396;2022-11-21T01:28:47;7.70;99.90
23160;DHT22;11748;50.844;4.396;2022-11-21T01:31:24;7.60;99.90
23160;DHT22;11748;50.844;4.396;2022-11-21T01:33:50;7.50;99.90
23160;DHT22;11748;50.844;4.396;2022-11-21T01:36:25;7.50;99.90
23160;DHT22;11748;50.844;4.396;2022-11-21T01:38:53;7.50;99.90
23160;DHT22;11748;50.844;4.396;2022-11-21T01:41:36;7.50;99.90
23160;DHT22;11748;50.844;4.396;2022-11-21T01:46:38;7.50;99.90
23160;DHT22;11748;50.844;4.396;2022-11-21T01:49:07;7.60;99.90
23160;DHT22;11748;50.844;4.396;2022-11-21T01:59:42;7.50;99.90
23160;DHT22;11748;50.844;4.396;2022-11-21T02:02:12;7.50;99.90
23160;DHT22;11748;50.844;4.396;2022-11-21T02:04:41;7.60;99.90
23160;DHT22;11748;50.844;4.396;2022-11-21T02:07:08;7.70;99.90
23160;DHT22;11748;50.844;4.396;2022-11-21T02:09:37;7.70;99.90
23160;DHT22;11748;50.844;4.396;2022-11-21T02:12:09;7.70;99.90
23160;DHT22;11748;50.844;4.396;2022-11-21T02:14:37;7.70;99.90
23160;DHT22;11748;50.844;4.396;2022-11-21T02:17:05;7.70;99.90
23160;DHT22;11748;50.844;4.396;2022-11-21T02:20:10;7.70;99.90
23160;DHT22;11748;50.844;4.396;2022-11-21T02:23:19;7.80;99.90
23160;DHT22;11748;50.844;4.396;2022-11-21T02:25:48;7.80;99.90
23160;DHT22;11748;50.844;4.396;2022-11-21T02:28:18;7.80;99.90
23160;DHT22;11748;50.844;4.396;2022-11-21T02:30:45;7.80;99.90
23160;DHT22;11748;50.844;4.396;2022-11-21T02:33:12;7.80;99.90
23160;DHT22;11748;50.844;4.396;2022-11-21T02:35:38;7.80;99.90
23160;DHT22;11748;50.844;4.396;2022-11-21T02:40:40;8.10;99.90
23160;DHT22;11748;50.844;4.396;2022-11-21T02:45:44;7.80;99.90
23160;DHT22;11748;50.844;4.396;2022-11-21T02:48:11;7.70;99.90
23160;DHT22;11748;50.844;4.396;2022-11-21T02:50:39;7.60;99.90
23160;DHT22;11748;50.844;4.396;2022-11-21T02:53:06;7.60;99.90
23160;DHT22;11748;50.844;4.396;2022-11-21T02:55:32;7.60;99.90
23160;DHT22;11748;50.844;4.396;2022-11-21T02:57:58;7.50;99.90
23160;DHT22;11748;50.844;4.396;2022-11-21T03:00:24;7.50;99.90
23160;DHT22;11748;50.844;4.396;2022-11-21T03:02:50;7.50;99.90
23160;DHT22;11748;50.844;4.396;2022-11-21T03:05:17;7.40;99.90
23160;DHT22;11748;50.844;4.396;2022-11-21T03:07:43;7.40;99.90
23160;DHT22;11748;50.844;4.396;2022-11-21T03:10:10;7.40;99.90
23160;DHT22;11748;50.844;4.396;2022-11-21T03:12:39;7.70;99.90
23160;DHT22;11748;50.844;4.396;2022-11-21T03:15:07;7.80;99.90
23160;DHT22;11748;50.844;4.396;2022-11-21T03:17:33;7.80;99.90
23160;DHT22;11748;50.844;4.396;2022-11-21T03:19:59;7.80;99.90
23160;DHT22;11748;50.844;4.396;2022-11-21T03:22:25;7.70;99.90
23160;DHT22;11748;50.844;4.396;2022-11-21T03:24:50;7.60;99.90
23160;DHT22;11748;50.844;4.396;2022-11-21T03:27:16;7.50;99.90
23160;DHT22;11748;50.844;4.396;2022-11-21T03:29:42;7.50;99.90
23160;DHT22;11748;50.844;4.396;2022-11-21T03:32:08;7.40;99.90
23160;DHT22;11748;50.844;4.396;2022-11-21T03:34:34;7.30;99.90
23160;DHT22;11748;50.844;4.396;2022-11-21T03:36:59;7.40;99.90
23160;DHT22;11748;50.844;4.396;2022-11-21T03:39:25;7.30;99.90
23160;DHT22;11748;50.844;4.396;2022-11-21T03:41:51;7.30;99.90
23160;DHT22;11748;50.844;4.396;2022-11-21T03:44:17;7.30;99.90
23160;DHT22;11748;50.844;4.396;2022-11-21T03:46:44;7.30;99.90
23160;DHT22;11748;50.844;4.396;2022-11-21T03:49:11;7.30;99.90
23160;DHT22;11748;50.844;4.396;2022-11-21T03:51:38;7.40;99.90
23160;DHT22;11748;50.844;4.396;2022-11-21T03:54:05;7.40;99.90
23160;DHT22;11748;50.844;4.396;2022-11-21T03:56:31;7.40;99.90
23160;DHT22;11748;50.844;4.396;2022-11-21T03:58:57;7.40;99.90
23160;DHT22;11748;50.844;4.396;2022-11-21T04:01:23;7.30;99.90
23160;DHT22;11748;50.844;4.396;2022-11-21T04:03:50;7.30;99.90
23160;DHT22;11748;50.844;4.396;2022-11-21T04:06:17;7.20;99.90
23160;DHT22;11748;50.844;4.396;2022-11-21T04:08:43;7.20;99.90
23160;DHT22;11748;50.844;4.396;2022-11-21T04:11:09;7.20;99.90
23160;DHT22;11748;50.844;4.396;2022-11-21T04:13:35;7.20;99.90
23160;DHT22;11748;50.844;4.396;2022-11-21T04:16:01;7.30;99.90
23160;DHT22;11748;50.844;4.396;2022-11-21T04:18:27;7.20;99.90
23160;DHT22;11748;50.844;4.396;2022-11-21T04:21:03;7.30;99.90
23160;DHT22;11748;50.844;4.396;2022-11-21T04:23:29;7.20;99.90
23160;DHT22;11748;50.844;4.396;2022-11-21T04:25:55;7.20;99.90
23160;DHT22;11748;50.844;4.396;2022-11-21T04:28:22;7.20;99.90
23160;DHT22;11748;50.844;4.396;2022-11-21T04:30:48;7.20;99.90
23160;DHT22;11748;50.844;4.396;2022-11-21T04:33:17;7.30;99.90
23160;DHT22;11748;50.844;4.396;2022-11-21T04:35:43;7.40;99.90
23160;DHT22;11748;50.844;4.396;2022-11-21T04:38:10;7.40;99.90
23160;DHT22;11748;50.844;4.396;2022-11-21T04:40:36;7.50;99.90
23160;DHT22;11748;50.844;4.396;2022-11-21T04:43:02;7.50;99.90
23160;DHT22;11748;50.844;4.396;2022-11-21T04:45:28;7.60;99.90
23160;DHT22;11748;50.844;4.396;2022-11-21T04:47:54;7.60;99.90
23160;DHT22;11748;50.844;4.396;2022-11-21T04:50:20;7.50;99.90
23160;DHT22;11748;50.844;4.396;2022-11-21T04:52:54;7.70;99.90
23160;DHT22;11748;50.844;4.396;2022-11-21T04:55:22;7.50;99.90
23160;DHT22;11748;50.844;4.396;2022-11-21T04:57:49;7.40;99.90
23160;DHT22;11748;50.844;4.396;2022-11-21T05:00:16;7.30;99.90
23160;DHT22;11748;50.844;4.396;2022-11-21T05:02:42;7.30;99.90
23160;DHT22;11748;50.844;4.396;2022-11-21T05:05:08;7.20;99.90
23160;DHT22;11748;50.844;4.396;2022-11-21T05:07:34;7.10;99.90
23160;DHT22;11748;50.844;4.396;2022-11-21T05:10:00;7.00;99.90
23160;DHT22;11748;50.844;4.396;2022-11-21T05:12:26;7.00;99.90
23160;DHT22;11748;50.844;4.396;2022-11-21T05:15:10;7.00;99.90
23160;DHT22;11748;50.844;4.396;2022-11-21T05:17:36;7.00;99.90
23160;DHT22;11748;50.844;4.396;2022-11-21T05:20:02;7.10;99.90
23160;DHT22;11748;50.844;4.396;2022-11-21T05:22:28;7.10;99.90
23160;DHT22;11748;50.844;4.396;2022-11-21T05:24:53;7.00;99.90
23160;DHT22;11748;50.844;4.396;2022-11-21T05:27:19;7.00;99.90
23160;DHT22;11748;50.844;4.396;2022-11-21T05:29:45;7.20;99.90
23160;DHT22;11748;50.844;4.396;2022-11-21T05:32:12;7.20;99.90
23160;DHT22;11748;50.844;4.396;2022-11-21T05:34:37;7.20;99.90
23160;DHT22;11748;50.844;4.396;2022-11-21T05:37:03;7.10;99.90
23160;DHT22;11748;50.844;4.396;2022-11-21T05:39:29;7.00;99.90
23160;DHT22;11748;50.844;4.396;2022-11-21T05:41:55;7.00;99.90
23160;DHT22;11748;50.844;4.396;2022-11-21T05:44:20;6.90;99.90
23160;DHT22;11748;50.844;4.396;2022-11-21T05:46:46;6.80;99.90
23160;DHT22;11748;50.844;4.396;2022-11-21T05:49:11;6.90;99.90
23160;DHT22;11748;50.844;4.396;2022-11-21T05:51:37;6.90;99.90
23160;DHT22;11748;50.844;4.396;2022-11-21T05:54:04;6.90;99.90
23160;DHT22;11748;50.844;4.396;2022-11-21T05:56:30;6.90;99.90
23160;DHT22;11748;50.844;4.396;2022-11-21T05:58:57;6.90;99.90
23160;DHT22;11748;50.844;4.396;2022-11-21T06:01:23;7.00;99.90
23160;DHT22;11748;50.844;4.396;2022-11-21T06:04:08;7.10;99.90
23160;DHT22;11748;50.844;4.396;2022-11-21T06:06:35;7.10;99.90
23160;DHT22;11748;50.844;4.396;2022-11-21T06:09:01;7.20;99.90
23160;DHT22;11748;50.844;4.396;2022-11-21T06:11:28;7.30;99.90
23160;DHT22;11748;50.844;4.396;2022-11-21T06:13:54;7.30;99.90
23160;DHT22;11748;50.844;4.396;2022-11-21T06:16:20;7.40;99.90
23160;DHT22;11748;50.844;4.396;2022-11-21T06:18:50;7.40;99.90
23160;DHT22;11748;50.844;4.396;2022-11-21T06:21:25;7.40;99.90
23160;DHT22;11748;50.844;4.396;2022-11-21T06:23:53;7.40;99.90
23160;DHT22;11748;50.844;4.396;2022-11-21T06:26:21;7.40;99.90
23160;DHT22;11748;50.844;4.396;2022-11-21T06:28:47;7.30;99.90
23160;DHT22;11748;50.844;4.396;2022-11-21T06:31:23;7.10;99.90
23160;DHT22;11748;50.844;4.396;2022-11-21T06:33:55;7.00;99.90
23160;DHT22;11748;50.844;4.396;2022-11-21T06:36:22;7.00;99.90
23160;DHT22;11748;50.844;4.396;2022-11-21T06:38:49;7.00;99.90
23160;DHT22;11748;50.844;4.396;2022-11-21T06:41:18;7.20;99.90
23160;DHT22;11748;50.844;4.396;2022-11-21T06:43:44;7.20;99.90
23160;DHT22;11748;50.844;4.396;2022-11-21T06:46:11;7.30;99.90
23160;DHT22;11748;50.844;4.396;2022-11-21T06:48:38;7.30;99.90
23160;DHT22;11748;50.844;4.396;2022-11-21T06:51:18;7.30;99.90
23160;DHT22;11748;50.844;4.396;2022-11-21T06:53:47;7.30;99.90
23160;DHT22;11748;50.844;4.396;2022-11-21T06:56:14;7.30;99.90
23160;DHT22;11748;50.844;4.396;2022-11-21T06:58:40;7.20;99.90
23160;DHT22;11748;50.844;4.396;2022-11-21T07:01:08;7.20;99.90
23160;DHT22;11748;50.844;4.396;2022-11-21T07:03:36;7.20;99.90
23160;DHT22;11748;50.844;4.396;2022-11-21T07:06:02;7.20;99.90
23160;DHT22;11748;50.844;4.396;2022-11-21T07:08:29;7.20;99.90
23160;DHT22;11748;50.844;4.396;2022-11-21T07:10:56;7.30;99.90
23160;DHT22;11748;50.844;4.396;2022-11-21T07:13:24;7.20;99.90
23160;DHT22;11748;50.844;4.396;2022-11-21T07:15:52;7.30;99.90
23160;DHT22;11748;50.844;4.396;2022-11-21T07:18:19;7.20;99.90
23160;DHT22;11748;50.844;4.396;2022-11-21T07:20:49;7.20;99.90
23160;DHT22;11748;50.844;4.396;2022-11-21T07:23:14;7.30;99.90
23160;DHT22;11748;50.844;4.396;2022-11-21T07:25:40;7.20;99.90
23160;DHT22;11748;50.844;4.396;2022-11-21T07:28:07;7.20;99.90
23160;DHT22;11748;50.844;4.396;2022-11-21T07:30:34;7.30;99.90
23160;DHT22;11748;50.844;4.396;2022-11-21T07:33:02;7.30;99.90
23160;DHT22;11748;50.844;4.396;2022-11-21T07:35:28;7.30;99.90
23160;DHT22;11748;50.844;4.396;2022-11-21T07:37:54;7.30;99.90
23160;DHT22;11748;50.844;4.396;2022-11-21T07:40:20;7.30;99.90
23160;DHT22;11748;50.844;4.396;2022-11-21T07:42:46;7.30;99.90
23160;DHT22;11748;50.844;4.396;2022-11-21T07:45:13;7.20;99.90
23160;DHT22;11748;50.844;4.396;2022-11-21T07:47:39;7.20;99.90
23160;DHT22;11748;50.844;4.396;2022-11-21T07:50:06;7.20;99.90
23160;DHT22;11748;50.844;4.396;2022-11-21T07:52:32;7.20;99.90
23160;DHT22;11748;50.844;4.396;2022-11-21T07:54:57;7.30;99.90
23160;DHT22;11748;50.844;4.396;2022-11-21T07:57:23;7.30;99.90
23160;DHT22;11748;50.844;4.396;2022-11-21T07:59:49;7.30;99.90
23160;DHT22;11748;50.844;4.396;2022-11-21T08:02:23;7.30;99.90
23160;DHT22;11748;50.844;4.396;2022-11-21T08:04:52;7.40;99.90
23160;DHT22;11748;50.844;4.396;2022-11-21T08:07:19;7.40;99.90
23160;DHT22;11748;50.844;4.396;2022-11-21T08:09:46;7.50;99.90
23160;DHT22;11748;50.844;4.396;2022-11-21T08:12:12;7.50;99.90
23160;DHT22;11748;50.844;4.396;2022-11-21T08:14:40;7.60;99.90
23160;DHT22;11748;50.844;4.396;2022-11-21T08:17:07;7.60;99.90
23160;DHT22;11748;50.844;4.396;2022-11-21T08:19:33;7.60;99.90
23160;DHT22;11748;50.844;4.396;2022-11-21T08:22:01;7.70;99.90
23160;DHT22;11748;50.844;4.396;2022-11-21T08:24:27;7.70;99.90
23160;DHT22;11748;50.844;4.396;2022-11-21T08:26:53;7.70;99.90
23160;DHT22;11748;50.844;4.396;2022-11-21T08:29:18;7.80;99.90
23160;DHT22;11748;50.844;4.396;2022-11-21T08:31:44;7.80;99.90
23160;DHT22;11748;50.844;4.396;2022-11-21T08:34:11;7.90;99.90
23160;DHT22;11748;50.844;4.396;2022-11-21T08:36:37;7.90;99.90
23160;DHT22;11748;50.844;4.396;2022-11-21T08:39:03;7.90;99.90
23160;DHT22;11748;50.844;4.396;2022-11-21T08:41:29;8.00;99.90
23160;DHT22;11748;50.844;4.396;2022-11-21T08:44:13;8.00;99.90
23160;DHT22;11748;50.844;4.396;2022-11-21T08:46:39;8.10;99.90
23160;DHT22;11748;50.844;4.396;2022-11-21T08:49:08;8.10;99.90
23160;DHT22;11748;50.844;4.396;2022-11-21T08:51:34;7.90;99.90
23160;DHT22;11748;50.844;4.396;2022-11-21T08:54:00;7.90;99.90
23160;DHT22;11748;50.844;4.396;2022-11-21T08:56:27;7.90;99.90
23160;DHT22;11748;50.844;4.396;2022-11-21T08:58:53;8.00;99.90
23160;DHT22;11748;50.844;4.396;2022-11-21T09:01:19;8.10;99.90
23160;DHT22;11748;50.844;4.396;2022-11-21T09:03:45;8.10;99.90
23160;DHT22;11748;50.844;4.396;2022-11-21T09:06:10;8.20;99.90
23160;DHT22;11748;50.844;4.396;2022-11-21T09:08:37;8.30;99.90
23160;DHT22;11748;50.844;4.396;2022-11-21T09:11:08;8.40;99.90
23160;DHT22;11748;50.844;4.396;2022-11-21T09:13:34;8.40;99.90
23160;DHT22;11748;50.844;4.396;2022-11-21T09:16:01;8.50;99.90
23160;DHT22;11748;50.844;4.396;2022-11-21T09:18:46;8.50;99.90
23160;DHT22;11748;50.844;4.396;2022-11-21T09:21:17;8.60;99.90
23160;DHT22;11748;50.844;4.396;2022-11-21T09:23:44;8.70;99.90
23160;DHT22;11748;50.844;4.396;2022-11-21T09:26:11;8.80;99.90
23160;DHT22;11748;50.844;4.396;2022-11-21T09:28:37;8.90;99.90
23160;DHT22;11748;50.844;4.396;2022-11-21T09:31:04;9.00;99.90
23160;DHT22;11748;50.844;4.396;2022-11-21T09:33:30;9.10;99.90
23160;DHT22;11748;50.844;4.396;2022-11-21T09:35:59;9.20;99.90
23160;DHT22;11748;50.844;4.396;2022-11-21T09:38:26;9.30;99.90
23160;DHT22;11748;50.844;4.396;2022-11-21T09:40:59;9.30;99.90
23160;DHT22;11748;50.844;4.396;2022-11-21T09:44:00;9.30;99.90
23160;DHT22;11748;50.844;4.396;2022-11-21T09:46:35;9.40;99.90
23160;DHT22;11748;50.844;4.396;2022-11-21T09:49:05;9.20;99.90
23160;DHT22;11748;50.844;4.396;2022-11-21T09:51:36;9.30;99.90
23160;DHT22;11748;50.844;4.396;2022-11-21T09:54:10;9.50;99.90
23160;DHT22;11748;50.844;4.396;2022-11-21T09:56:40;9.70;99.90
23160;DHT22;11748;50.844;4.396;2022-11-21T10:01:44;9.70;99.90
23160;DHT22;11748;50.844;4.396;2022-11-21T10:04:09;9.80;99.90
23160;DHT22;11748;50.844;4.396;2022-11-21T10:06:57;9.80;99.90
23160;DHT22;11748;50.844;4.396;2022-11-21T10:12:50;9.80;99.90
23160;DHT22;11748;50.844;4.396;2022-11-21T10:26:31;9.90;99.90
23160;DHT22;11748;50.844;4.396;2022-11-21T10:29:40;9.80;99.90
23160;DHT22;11748;50.844;4.396;2022-11-21T10:32:22;9.70;99.90
23160;DHT22;11748;50.844;4.396;2022-11-21T10:34:51;9.50;99.90
23160;DHT22;11748;50.844;4.396;2022-11-21T10:37:34;9.40;99.90
23160;DHT22;11748;50.844;4.396;2022-11-21T10:40:09;9.40;99.90
23160;DHT22;11748;50.844;4.396;2022-11-21T10:45:16;9.20;99.90
23160;DHT22;11748;50.844;4.396;2022-11-21T10:47:45;9.30;99.90
23160;DHT22;11748;50.844;4.396;2022-11-21T10:55:57;9.70;99.90
23160;DHT22;11748;50.844;4.396;2022-11-21T10:58:38;9.70;99.90
23160;DHT22;11748;50.844;4.396;2022-11-21T11:01:05;9.90;99.90
23160;DHT22;11748;50.844;4.396;2022-11-21T11:03:31;10.00;99.90
23160;DHT22;11748;50.844;4.396;2022-11-21T11:05:57;10.10;99.90
23160;DHT22;11748;50.844;4.396;2022-11-21T11:08:23;10.10;99.90
23160;DHT22;11748;50.844;4.396;2022-11-21T11:11:02;10.10;99.90
23160;DHT22;11748;50.844;4.396;2022-11-21T11:13:28;10.20;99.90
23160;DHT22;11748;50.844;4.396;2022-11-21T11:19:05;10.20;99.90
23160;DHT22;11748;50.844;4.396;2022-11-21T11:21:45;10.40;99.90
23160;DHT22;11748;50.844;4.396;2022-11-21T11:29:16;10.40;99.90
23160;DHT22;11748;50.844;4.396;2022-11-21T11:32:01;10.30;99.90
23160;DHT22;11748;50.844;4.396;2022-11-21T11:34:38;10.40;99.90
23160;DHT22;11748;50.844;4.396;2022-11-21T11:37:24;10.50;99.90
23160;DHT22;11748;50.844;4.396;2022-11-21T11:49:30;10.50;99.90
23160;DHT22;11748;50.844;4.396;2022-11-21T11:52:17;10.20;99.90
23160;DHT22;11748;50.844;4.396;2022-11-21T11:54:49;10.20;99.90
23160;DHT22;11748;50.844;4.396;2022-11-21T11:57:17;10.40;99.90
23160;DHT22;11748;50.844;4.396;2022-11-21T11:59:47;10.50;99.90
23160;DHT22;11748;50.844;4.396;2022-11-21T12:04:54;10.60;99.90
23160;DHT22;11748;50.844;4.396;2022-11-21T12:07:30;10.50;99.90
23160;DHT22;11748;50.844;4.396;2022-11-21T12:10:02;10.60;99.90
23160;DHT22;11748;50.844;4.396;2022-11-21T12:12:35;10.60;99.90
23160;DHT22;11748;50.844;4.396;2022-11-21T12:23:47;10.70;99.90
23160;DHT22;11748;50.844;4.396;2022-11-21T12:32:29;11.00;99.90
23160;DHT22;11748;50.844;4.396;2022-11-21T12:46:51;11.10;99.90
23160;DHT22;11748;50.844;4.396;2022-11-21T12:49:31;11.00;99.90
23160;DHT22;11748;50.844;4.396;2022-11-21T12:52:39;11.00;99.90
23160;DHT22;11748;50.844;4.396;2022-11-21T12:55:28;11.10;99.90
23160;DHT22;11748;50.844;4.396;2022-11-21T13:03:55;11.30;99.90
23160;DHT22;11748;50.844;4.396;2022-11-21T13:06:27;11.30;99.90
23160;DHT22;11748;50.844;4.396;2022-11-21T13:08:56;11.50;99.90
23160;DHT22;11748;50.844;4.396;2022-11-21T13:14:20;11.40;99.90
23160;DHT22;11748;50.844;4.396;2022-11-21T13:16:58;11.20;99.90
23160;DHT22;11748;50.844;4.396;2022-11-21T13:19:41;11.30;99.90
23160;DHT22;11748;50.844;4.396;2022-11-21T13:27:48;11.10;99.90
23160;DHT22;11748;50.844;4.396;2022-11-21T13:32:44;11.20;99.90
23160;DHT22;11748;50.844;4.396;2022-11-21T13:40:37;11.10;99.90
23160;DHT22;11748;50.844;4.396;2022-11-21T13:45:50;11.20;99.90
23160;DHT22;11748;50.844;4.396;2022-11-21T13:59:28;11.20;99.90
23160;DHT22;11748;50.844;4.396;2022-11-21T14:07:33;10.90;99.90
23160;DHT22;11748;50.844;4.396;2022-11-21T14:10:02;11.00;99.90
23160;DHT22;11748;50.844;4.396;2022-11-21T14:17:48;11.10;99.90
23160;DHT22;11748;50.844;4.396;2022-11-21T14:20:27;11.10;99.90
23160;DHT22;11748;50.844;4.396;2022-11-21T14:22:55;11.10;99.90
23160;DHT22;11748;50.844;4.396;2022-11-21T14:28:36;11.10;99.90
23160;DHT22;11748;50.844;4.396;2022-11-21T14:31:07;11.00;99.90
23160;DHT22;11748;50.844;4.396;2022-11-21T14:33:37;10.80;99.90
23160;DHT22;11748;50.844;4.396;2022-11-21T14:36:25;10.90;99.90
23160;DHT22;11748;50.844;4.396;2022-11-21T14:38:59;10.90;99.90
23160;DHT22;11748;50.844;4.396;2022-11-21T14:46:27;10.90;99.90
23160;DHT22;11748;50.844;4.396;2022-11-21T14:48:53;10.80;99.90
23160;DHT22;11748;50.844;4.396;2022-11-21T14:51:26;10.80;99.90
23160;DHT22;11748;50.844;4.396;2022-11-21T14:54:01;10.80;99.90
23160;DHT22;11748;50.844;4.396;2022-11-21T14:56:32;10.70;99.90
23160;DHT22;11748;50.844;4.396;2022-11-21T14:59:01;10.70;99.90
23160;DHT22;11748;50.844;4.396;2022-11-21T15:01:30;10.60;99.90
23160;DHT22;11748;50.844;4.396;2022-11-21T15:03:58;10.60;99.90
23160;DHT22;11748;50.844;4.396;2022-11-21T15:06:26;10.60;99.90
23160;DHT22;11748;50.844;4.396;2022-11-21T15:08:54;10.60;99.90
23160;DHT22;11748;50.844;4.396;2022-11-21T15:11:37;10.60;99.90
23160;DHT22;11748;50.844;4.396;2022-11-21T15:14:10;10.50;99.90
23160;DHT22;11748;50.844;4.396;2022-11-21T15:16:37;10.50;99.90
23160;DHT22;11748;50.844;4.396;2022-11-21T15:19:09;10.40;99.90
23160;DHT22;11748;50.844;4.396;2022-11-21T15:21:35;10.30;99.90
23160;DHT22;11748;50.844;4.396;2022-11-21T15:24:26;10.30;99.90
23160;DHT22;11748;50.844;4.396;2022-11-21T15:26:53;10.40;99.90
23160;DHT22;11748;50.844;4.396;2022-11-21T15:29:20;10.50;99.90
23160;DHT22;11748;50.844;4.396;2022-11-21T15:32:07;10.40;99.90
23160;DHT22;11748;50.844;4.396;2022-11-21T15:34:35;10.40;99.90
23160;DHT22;11748;50.844;4.396;2022-11-21T15:37:17;10.50;99.90
23160;DHT22;11748;50.844;4.396;2022-11-21T15:39:48;10.30;99.90
23160;DHT22;11748;50.844;4.396;2022-11-21T15:47:41;10.40;99.90
23160;DHT22;11748;50.844;4.396;2022-11-21T15:50:07;10.40;99.90
23160;DHT22;11748;50.844;4.396;2022-11-21T15:52:43;10.40;99.90
23160;DHT22;11748;50.844;4.396;2022-11-21T15:55:16;10.40;99.90
23160;DHT22;11748;50.844;4.396;2022-11-21T15:57:43;10.60;99.90
23160;DHT22;11748;50.844;4.396;2022-11-21T16:00:09;10.50;99.90
23160;DHT22;11748;50.844;4.396;2022-11-21T16:02:36;10.50;99.90
23160;DHT22;11748;50.844;4.396;2022-11-21T16:05:02;10.50;99.90
23160;DHT22;11748;50.844;4.396;2022-11-21T16:07:28;10.50;99.90
23160;DHT22;11748;50.844;4.396;2022-11-21T16:09:54;10.50;99.90
23160;DHT22;11748;50.844;4.396;2022-11-21T16:12:20;10.50;99.90
23160;DHT22;11748;50.844;4.396;2022-11-21T16:14:46;10.50;99.90
23160;DHT22;11748;50.844;4.396;2022-11-21T16:17:12;10.50;99.90
23160;DHT22;11748;50.844;4.396;2022-11-21T16:19:38;10.50;99.90
23160;DHT22;11748;50.844;4.396;2022-11-21T16:22:04;10.50;99.90
23160;DHT22;11748;50.844;4.396;2022-11-21T16:24:29;10.60;99.90
23160;DHT22;11748;50.844;4.396;2022-11-21T16:26:55;10.50;99.90
23160;DHT22;11748;50.844;4.396;2022-11-21T16:29:21;10.40;99.90
23160;DHT22;11748;50.844;4.396;2022-11-21T16:31:48;10.50;99.90
23160;DHT22;11748;50.844;4.396;2022-11-21T16:34:18;10.40;99.90
23160;DHT22;11748;50.844;4.396;2022-11-21T16:36:43;10.30;99.90
23160;DHT22;11748;50.844;4.396;2022-11-21T16:39:09;10.40;99.90
23160;DHT22;11748;50.844;4.396;2022-11-21T16:41:35;10.40;99.90
23160;DHT22;11748;50.844;4.396;2022-11-21T16:44:01;10.40;99.90
23160;DHT22;11748;50.844;4.396;2022-11-21T16:46:26;10.30;99.90
23160;DHT22;11748;50.844;4.396;2022-11-21T16:49:02;10.40;99.90
23160;DHT22;11748;50.844;4.396;2022-11-21T16:51:29;10.40;99.90
23160;DHT22;11748;50.844;4.396;2022-11-21T16:53:57;10.30;99.90
23160;DHT22;11748;50.844;4.396;2022-11-21T16:56:23;10.20;99.90
23160;DHT22;11748;50.844;4.396;2022-11-21T16:58:48;10.10;99.90
23160;DHT22;11748;50.844;4.396;2022-11-21T17:01:24;10.00;99.90
23160;DHT22;11748;50.844;4.396;2022-11-21T17:03:51;10.00;99.90
23160;DHT22;11748;50.844;4.396;2022-11-21T17:06:19;10.20;99.90
23160;DHT22;11748;50.844;4.396;2022-11-21T17:08:45;10.20;99.90
23160;DHT22;11748;50.844;4.396;2022-11-21T17:11:12;10.10;99.90
23160;DHT22;11748;50.844;4.396;2022-11-21T17:13:46;10.20;99.90
23160;DHT22;11748;50.844;4.396;2022-11-21T17:16:18;10.10;99.90
23160;DHT22;11748;50.844;4.396;2022-11-21T17:18:45;10.10;99.90
23160;DHT22;11748;50.844;4.396;2022-11-21T17:21:13;10.00;99.90
23160;DHT22;11748;50.844;4.396;2022-11-21T17:23:42;10.00;99.90
23160;DHT22;11748;50.844;4.396;2022-11-21T17:26:09;9.90;99.90
23160;DHT22;11748;50.844;4.396;2022-11-21T17:28:36;9.90;99.90
23160;DHT22;11748;50.844;4.396;2022-11-21T17:31:10;9.80;99.90
23160;DHT22;11748;50.844;4.396;2022-11-21T17:33:36;9.80;99.90
23160;DHT22;11748;50.844;4.396;2022-11-21T17:36:04;9.90;99.90
23160;DHT22;11748;50.844;4.396;2022-11-21T17:38:30;9.80;99.90
23160;DHT22;11748;50.844;4.396;2022-11-21T17:41:03;9.90;99.90
23160;DHT22;11748;50.844;4.396;2022-11-21T17:43:30;9.70;99.90
23160;DHT22;11748;50.844;4.396;2022-11-21T17:46:02;9.80;99.90
23160;DHT22;11748;50.844;4.396;2022-11-21T17:48:28;9.60;99.90
23160;DHT22;11748;50.844;4.396;2022-11-21T17:51:12;9.60;99.90
23160;DHT22;11748;50.844;4.396;2022-11-21T17:53:40;9.60;99.90
23160;DHT22;11748;50.844;4.396;2022-11-21T17:56:08;9.50;99.90
23160;DHT22;11748;50.844;4.396;2022-11-21T17:58:34;9.50;99.90
23160;DHT22;11748;50.844;4.396;2022-11-21T18:01:02;9.60;99.90
23160;DHT22;11748;50.844;4.396;2022-11-21T18:03:28;9.60;99.90
23160;DHT22;11748;50.844;4.396;2022-11-21T18:08:33;9.60;99.90
23160;DHT22;11748;50.844;4.396;2022-11-21T18:10:59;9.70;99.90
23160;DHT22;11748;50.844;4.396;2022-11-21T18:13:28;9.70;99.90
23160;DHT22;11748;50.844;4.396;2022-11-21T18:15:54;9.60;99.90
23160;DHT22;11748;50.844;4.396;2022-11-21T18:18:21;9.60;99.90
23160;DHT22;11748;50.844;4.396;2022-11-21T18:20:47;9.60;99.90
23160;DHT22;11748;50.844;4.396;2022-11-21T18:23:13;9.60;99.90
23160;DHT22;11748;50.844;4.396;2022-11-21T18:25:39;9.60;99.90